Time;durP1;ratioP1;P1;durP2;ratioP2;P2;SDS_P1;SDS_P2;PMS_P1;PMS_P2;Temp;Humidity;BMP_temperature;BMP_pressure;BME280_temperature;BME280_humidity;BME280_pressure;Samples;Min_cycle;Max_cycle;Signal;HPM_P1;HPM_P2
2023/07/07 00:00:05;;;;;;;66.00;3.67;;;18.70;1.00;;;;;;5077719;28;20898;-80
2023/07/07 00:02:31;;;;;;;66.77;3.83;;;18.70;1.00;;;;;;5080260;28;20418;-80
2023/07/07 00:04:56;;;;;;;65.27;3.60;;;18.60;1.00;;;;;;5080516;28;20395;-80
2023/07/07 00:07:22;;;;;;;67.77;4.07;;;18.60;1.00;;;;;;5079940;28;20729;-80
2023/07/07 00:09:48;;;;;;;70.43;4.10;;;18.60;1.00;;;;;;5079485;28;20184;-80
2023/07/07 00:12:16;;;;;;;67.37;4.17;;;18.40;1.00;;;;;;5079783;28;20480;-80
2023/07/07 00:14:43;;;;;;;67.53;4.30;;;18.50;1.00;;;;;;5079160;28;20901;-80
2023/07/07 00:17:11;;;;;;;66.97;3.70;;;18.50;1.00;;;;;;5079084;28;20441;-80
2023/07/07 00:19:37;;;;;;;65.77;4.17;;;18.40;1.00;;;;;;5079165;28;20406;-80
2023/07/07 00:22:06;;;;;;;69.07;3.83;;;18.40;1.00;;;;;;5079164;28;20417;-80
2023/07/07 00:24:33;;;;;;;66.97;4.20;;;18.40;1.00;;;;;;5079493;28;20156;-80
2023/07/07 00:27:00;;;;;;;70.03;4.33;;;18.40;1.00;;;;;;5078977;28;20394;-80
2023/07/07 00:29:25;;;;;;;66.40;4.00;;;18.30;1.00;;;;;;5061587;28;20434;-80
2023/07/07 00:31:51;;;;;;;67.80;4.43;;;18.30;1.00;;;;;;5079594;28;20967;-80
2023/07/07 00:34:17;;;;;;;65.73;3.90;;;18.30;1.00;;;;;;5079316;28;20535;-80
2023/07/07 00:36:43;;;;;;;67.17;4.33;;;18.30;1.00;;;;;;5061438;28;20267;-80
2023/07/07 00:39:09;;;;;;;69.60;4.50;;;18.30;1.00;;;;;;5079165;28;20828;-80
2023/07/07 00:41:35;;;;;;;66.83;4.00;;;18.20;1.00;;;;;;5079885;28;20156;-80
2023/07/07 00:44:06;;;;;;;65.67;3.93;;;18.20;1.00;;;;;;5078837;28;20834;-80
2023/07/07 00:46:32;;;;;;;70.13;4.17;;;18.20;1.00;;;;;;5061212;28;20534;-80
2023/07/07 00:49:00;;;;;;;67.37;4.67;;;18.20;1.00;;;;;;5078976;28;20933;-80
2023/07/07 00:51:34;;;;;;;65.73;4.47;;;18.10;1.00;;;;;;5078861;28;20411;-80
2023/07/07 00:54:05;;;;;;;67.67;4.60;;;18.10;1.00;;;;;;5078889;28;20408;-80
2023/07/07 00:56:37;;;;;;;66.57;4.53;;;18.10;1.00;;;;;;5078504;28;20434;-80
2023/07/07 00:59:08;;;;;;;68.67;4.30;;;18.10;1.00;;;;;;5078901;28;20510;-79
2023/07/07 01:01:35;;;;;;;66.80;4.27;;;18.10;1.00;;;;;;5078945;28;20391;-80
2023/07/07 01:04:04;;;;;;;65.67;4.50;;;18.00;1.00;;;;;;5079327;28;20458;-80
2023/07/07 01:06:35;;;;;;;67.47;4.77;;;18.00;1.00;;;;;;5079259;28;20403;-80
2023/07/07 01:09:06;;;;;;;65.67;4.40;;;18.00;1.00;;;;;;5078352;28;20433;-80
2023/07/07 01:11:32;;;;;;;66.77;4.73;;;17.90;1.00;;;;;;5077291;28;20425;-80
2023/07/07 01:14:01;;;;;;;65.47;4.60;;;17.90;1.00;;;;;;5078658;28;20825;-80
2023/07/07 01:16:37;;;;;;;66.13;4.73;;;17.90;1.00;;;;;;5060482;28;20470;-80
2023/07/07 01:19:27;;;;;;;66.90;4.60;;;17.90;1.00;;;;;;5078977;28;20418;-80
2023/07/07 01:22:40;;;;;;;67.10;5.20;;;17.80;1.00;;;;;;5078087;28;20965;-80
2023/07/07 01:25:37;;;;;;;66.97;5.50;;;17.80;1.00;;;;;;5078279;28;20928;-80
2023/07/07 01:28:20;;;;;;;66.90;5.10;;;17.70;1.00;;;;;;5060157;28;20423;-80
2023/07/07 01:31:15;;;;;;;66.43;4.67;;;17.80;1.00;;;;;;5078472;28;20393;-79
2023/07/07 01:33:42;;;;;;;67.40;5.50;;;17.70;1.00;;;;;;5077893;28;20378;-80
2023/07/07 01:36:08;;;;;;;67.77;5.30;;;17.60;1.60;;;;;;5078214;28;20848;-80
2023/07/07 01:38:46;;;;;;;67.10;5.80;;;17.60;1.70;;;;;;5078151;28;20501;-80
2023/07/07 01:41:20;;;;;;;68.50;5.90;;;17.60;1.40;;;;;;5078063;28;20163;-80
2023/07/07 01:44:01;;;;;;;69.17;6.30;;;17.50;1.70;;;;;;5077553;28;20455;-80
2023/07/07 01:46:27;;;;;;;68.10;5.37;;;17.50;1.00;;;;;;5077952;28;20375;-80
2023/07/07 01:49:01;;;;;;;69.40;6.27;;;17.50;2.20;;;;;;5077776;28;20429;-80
2023/07/07 01:51:30;;;;;;;68.37;6.70;;;17.40;2.20;;;;;;5077436;28;20147;-80
2023/07/07 01:53:58;;;;;;;67.70;6.87;;;17.40;2.60;;;;;;5076771;28;20395;-80
2023/07/07 01:56:27;;;;;;;68.20;6.90;;;17.40;2.40;;;;;;5076940;28;20444;-80
2023/07/07 01:58:53;;;;;;;66.63;6.20;;;17.40;1.40;;;;;;5077753;28;20418;-80
2023/07/07 02:01:20;;;;;;;66.97;6.23;;;17.30;2.90;;;;;;5077784;28;20398;-80
2023/07/07 02:03:46;;;;;;;67.73;6.23;;;17.30;3.00;;;;;;5077128;28;20834;-80
2023/07/07 02:06:12;;;;;;;66.73;6.37;;;17.30;3.70;;;;;;5077286;28;20405;-80
2023/07/07 02:08:37;;;;;;;73.50;7.20;;;17.30;3.40;;;;;;5059658;28;20192;-79
2023/07/07 02:11:03;;;;;;;67.97;7.03;;;17.30;3.30;;;;;;5077260;28;20184;-80
2023/07/07 02:13:29;;;;;;;68.00;7.00;;;17.20;4.70;;;;;;5077731;28;20183;-80
2023/07/07 02:15:54;;;;;;;68.90;7.80;;;17.20;4.00;;;;;;5077451;28;20199;-79
2023/07/07 02:18:20;;;;;;;67.63;6.80;;;17.20;5.30;;;;;;5077278;28;20180;-80
2023/07/07 02:20:46;;;;;;;68.87;8.27;;;17.20;2.80;;;;;;5077866;28;20159;-80
2023/07/07 02:23:11;;;;;;;67.17;7.53;;;17.10;3.90;;;;;;5076736;28;20164;-80
2023/07/07 02:25:37;;;;;;;67.80;8.30;;;17.10;4.50;;;;;;5077402;28;20171;-80
2023/07/07 02:28:03;;;;;;;67.30;6.83;;;17.10;2.70;;;;;;5077250;28;20191;-80
2023/07/07 02:30:29;;;;;;;71.00;7.47;;;17.00;4.70;;;;;;5077455;28;20180;-80
2023/07/07 02:32:55;;;;;;;71.10;8.90;;;17.10;4.60;;;;;;5077340;28;20523;-80
2023/07/07 02:35:20;;;;;;;67.27;6.57;;;17.00;4.60;;;;;;5077150;28;20438;-80
2023/07/07 02:37:46;;;;;;;67.77;7.53;;;17.00;4.90;;;;;;5076772;28;20172;-79
2023/07/07 02:40:12;;;;;;;68.17;7.20;;;16.90;6.80;;;;;;5077280;28;20163;-80
2023/07/07 02:42:37;;;;;;;68.40;8.47;;;16.90;6.50;;;;;;5076682;28;20160;-80
2023/07/07 02:45:03;;;;;;;69.07;7.60;;;16.90;7.00;;;;;;5076894;28;20163;-80
2023/07/07 02:47:29;;;;;;;67.27;7.43;;;16.80;8.70;;;;;;5077010;28;20178;-80
2023/07/07 02:49:55;;;;;;;68.77;7.43;;;16.90;6.90;;;;;;5077354;28;20480;-80
2023/07/07 02:52:22;;;;;;;68.50;7.80;;;16.90;6.40;;;;;;5076756;28;20540;-80
2023/07/07 02:54:47;;;;;;;67.07;6.90;;;16.80;5.50;;;;;;5077045;28;20413;-80
2023/07/07 02:57:13;;;;;;;67.87;8.07;;;16.80;8.00;;;;;;5076485;28;20196;-80
2023/07/07 02:59:42;;;;;;;70.80;9.07;;;16.70;9.00;;;;;;5077489;28;20616;-80
2023/07/07 03:02:07;;;;;;;68.73;7.73;;;16.80;8.30;;;;;;5076824;28;20539;-80
2023/07/07 03:04:33;;;;;;;69.30;8.50;;;16.70;8.10;;;;;;5077045;28;20410;-80
2023/07/07 03:06:59;;;;;;;67.80;7.90;;;16.60;9.60;;;;;;5076143;28;20406;-80
2023/07/07 03:09:25;;;;;;;69.50;8.67;;;16.60;10.40;;;;;;5150094;22;20226;-84
2023/07/07 03:11:50;;;;;;;69.37;8.97;;;16.60;8.70;;;;;;5076907;28;20228;-84
2023/07/07 03:14:19;;;;;;;68.77;9.60;;;16.60;8.80;;;;;;5076792;28;20160;-84
2023/07/07 03:16:51;;;;;;;68.60;7.50;;;16.60;9.90;;;;;;5076533;28;20195;-85
2023/07/07 03:19:20;;;;;;;68.70;8.57;;;16.60;9.90;;;;;;5076631;28;20482;-82
2023/07/07 03:21:46;;;;;;;69.93;9.60;;;16.50;11.20;;;;;;5058773;28;20417;-82
2023/07/07 03:24:13;;;;;;;68.07;8.70;;;16.50;11.80;;;;;;5076908;28;20969;-82
2023/07/07 03:26:39;;;;;;;68.50;9.43;;;16.40;12.20;;;;;;5077286;28;20197;-82
2023/07/07 03:29:04;;;;;;;74.00;10.70;;;16.40;13.90;;;;;;5075883;28;20426;-83
2023/07/07 03:31:31;;;;;;;70.70;10.87;;;16.40;14.70;;;;;;5077299;28;20527;-83
2023/07/07 03:34:00;;;;;;;73.93;11.37;;;16.40;15.70;;;;;;5077286;28;20195;-82
2023/07/07 03:36:28;;;;;;;70.07;10.10;;;16.40;16.30;;;;;;5080744;28;20514;-83
2023/07/07 03:38:55;;;;;;;72.83;11.10;;;16.40;18.40;;;;;;5080969;28;20429;-83
2023/07/07 03:41:23;;;;;;;70.00;11.57;;;16.40;19.00;;;;;;5081214;28;20401;-83
2023/07/07 03:43:49;;;;;;;69.67;11.00;;;16.40;20.20;;;;;;5081976;28;20394;-83
2023/07/07 03:46:20;;;;;;;69.80;12.63;;;16.40;22.30;;;;;;5081168;28;20404;-83
2023/07/07 03:48:47;;;;;;;73.83;13.30;;;16.40;21.90;;;;;;5063197;28;20184;-83
2023/07/07 03:53:44;;;;;;;72.27;14.67;;;16.50;22.20;;;;;;5462140;22;1436662;-85
2023/07/07 03:56:11;;;;;;;72.93;12.67;;;16.40;23.50;;;;;;5080687;28;20449;-85
2023/07/07 03:58:37;;;;;;;72.07;12.20;;;16.50;24.70;;;;;;5080690;28;20418;-84
2023/07/07 04:01:04;;;;;;;72.40;13.13;;;16.50;25.20;;;;;;5062234;28;20417;-83
2023/07/07 04:03:31;;;;;;;70.40;11.80;;;16.50;24.80;;;;;;5062547;28;20259;-83
2023/07/07 04:05:57;;;;;;;71.53;10.50;;;16.50;24.80;;;;;;5063138;28;20414;-83
2023/07/07 04:08:24;;;;;;;71.70;11.30;;;16.50;26.50;;;;;;5062809;28;20441;-83
2023/07/07 04:11:01;;;;;;;72.10;12.30;;;16.50;26.40;;;;;;5080622;28;20434;-83
2023/07/07 04:13:32;;;;;;;70.47;12.30;;;16.60;25.80;;;;;;5080552;28;20489;-83
2023/07/07 04:16:08;;;;;;;72.37;12.37;;;16.60;26.00;;;;;;5080412;28;20430;-83
2023/07/07 04:18:34;;;;;;;72.73;11.80;;;16.50;27.00;;;;;;5081394;28;20414;-83
2023/07/07 04:21:02;;;;;;;71.00;11.37;;;16.50;28.60;;;;;;5062394;28;20413;-83
2023/07/07 04:23:28;;;;;;;72.07;11.50;;;16.50;30.20;;;;;;5078332;28;20399;-83
2023/07/07 04:25:54;;;;;;;71.17;10.40;;;16.60;28.20;;;;;;5078205;28;20409;-83
2023/07/07 04:28:21;;;;;;;68.40;10.83;;;16.60;27.60;;;;;;5077983;28;20935;-83
2023/07/07 04:31:12;;;;;;;70.63;10.87;;;16.60;28.40;;;;;;5061059;28;20411;-83
2023/07/07 04:33:39;;;;;;;69.80;10.67;;;16.50;31.00;;;;;;5079015;28;20378;-83
2023/07/07 04:36:09;;;;;;;68.07;10.60;;;16.50;31.90;;;;;;5060607;28;20518;-83
2023/07/07 04:38:35;;;;;;;70.00;8.97;;;16.50;34.20;;;;;;5078699;28;20426;-83
2023/07/07 04:41:10;;;;;;;70.20;10.00;;;16.70;35.10;;;;;;5061130;28;20473;-83
2023/07/07 04:43:40;;;;;;;68.80;8.43;;;17.10;40.90;;;;;;5078944;28;20402;-83
2023/07/07 04:46:13;;;;;;;69.77;6.70;;;17.50;36.00;;;;;;5153219;22;20469;-83
2023/07/07 04:48:44;;;;;;;67.67;5.93;;;17.70;25.10;;;;;;5078728;28;20422;-83
2023/07/07 04:51:11;;;;;;;67.43;4.90;;;18.10;20.20;;;;;;5078958;28;20939;-83
2023/07/07 04:53:39;;;;;;;66.53;4.20;;;18.40;10.40;;;;;;5078230;28;20390;-83
2023/07/07 04:56:16;;;;;;;72.00;4.63;;;18.70;4.10;;;;;;5060271;28;20465;-83
2023/07/07 04:58:48;;;;;;;67.43;4.00;;;18.80;1.00;;;;;;5061166;28;20427;-83
2023/07/07 05:01:20;;;;;;;69.20;4.60;;;19.10;1.00;;;;;;5079798;28;20513;-83
2023/07/07 05:03:52;;;;;;;69.90;4.30;;;19.20;1.00;;;;;;5080061;28;20441;-83
2023/07/07 05:06:19;;;;;;;67.03;4.00;;;19.30;1.00;;;;;;5081050;28;20870;-85
2023/07/07 05:08:50;;;;;;;68.43;3.83;;;19.40;1.00;;;;;;5081393;28;20447;-84
2023/07/07 05:11:19;;;;;;;67.37;3.60;;;19.60;1.00;;;;;;5064139;28;20403;-84
2023/07/07 05:13:49;;;;;;;66.70;3.60;;;19.30;1.00;;;;;;5082102;28;20408;-85
2023/07/07 05:16:20;;;;;;;66.27;3.20;;;19.10;1.00;;;;;;5081934;28;20441;-84
2023/07/07 05:18:46;;;;;;;66.47;3.70;;;18.70;1.00;;;;;;5081741;28;20446;-86
2023/07/07 05:21:13;;;;;;;72.07;5.20;;;18.60;1.00;;;;;;5063712;28;20402;-84
2023/07/07 05:23:39;;;;;;;69.67;6.07;;;18.40;1.00;;;;;;5082002;28;21000;-85
2023/07/07 05:26:06;;;;;;;68.70;4.97;;;18.40;1.00;;;;;;5081605;28;20402;-84
2023/07/07 05:28:32;;;;;;;67.40;4.80;;;18.30;1.00;;;;;;5083208;28;20448;-86
2023/07/07 05:30:58;;;;;;;68.93;4.97;;;18.10;1.00;;;;;;5064961;28;20418;-86
2023/07/07 05:33:24;;;;;;;68.67;5.23;;;18.10;1.00;;;;;;5082624;28;20403;-84
2023/07/07 05:35:55;;;;;;;68.27;5.50;;;17.90;1.00;;;;;;5081836;28;20602;-85
2023/07/07 05:38:26;;;;;;;68.90;6.43;;;17.70;5.00;;;;;;5082106;28;20414;-84
2023/07/07 05:40:52;;;;;;;67.97;6.30;;;17.70;6.20;;;;;;5082300;28;20516;-84
2023/07/07 05:43:21;;;;;;;67.67;6.57;;;17.70;6.60;;;;;;5083989;28;20403;-86
2023/07/07 05:45:57;;;;;;;67.17;6.67;;;17.60;8.60;;;;;;5083099;28;20402;-83
2023/07/07 05:48:34;;;;;;;68.57;6.60;;;17.50;15.00;;;;;;5082761;28;20457;-86
2023/07/07 05:51:03;;;;;;;67.30;6.80;;;17.50;13.60;;;;;;5083844;28;20436;-86
2023/07/07 05:53:28;;;;;;;70.10;7.90;;;17.50;13.60;;;;;;5080789;28;20481;-85
2023/07/07 05:56:09;;;;;;;69.13;6.70;;;17.50;12.70;;;;;;5082112;28;20473;-85
2023/07/07 05:58:36;;;;;;;69.93;6.97;;;17.40;11.20;;;;;;5080790;28;20846;-85
2023/07/07 06:01:05;;;;;;;67.20;7.43;;;17.40;10.50;;;;;;5083068;28;20403;-83
2023/07/07 06:03:32;;;;;;;68.93;10.10;;;17.40;8.10;;;;;;5070435;28;20411;-81
2023/07/07 06:05:57;;;;;;;69.37;7.83;;;17.30;13.00;;;;;;5089377;28;20402;-80
2023/07/07 06:08:23;;;;;;;69.90;6.83;;;17.40;11.90;;;;;;5070729;28;20436;-80
2023/07/07 06:10:51;;;;;;;68.23;6.13;;;17.50;7.10;;;;;;5087956;28;20160;-81
2023/07/07 06:13:17;;;;;;;68.27;7.57;;;17.60;6.70;;;;;;5088957;28;20168;-81
2023/07/07 06:15:44;;;;;;;69.90;8.10;;;17.50;4.60;;;;;;5071173;28;20968;-80
2023/07/07 06:18:10;;;;;;;67.00;7.23;;;17.60;10.10;;;;;;5088429;28;20433;-80
2023/07/07 06:20:35;;;;;;;67.40;6.63;;;17.60;7.30;;;;;;5086167;28;20469;-83
2023/07/07 06:23:01;;;;;;;67.27;6.90;;;17.80;4.90;;;;;;5086451;28;20398;-83
2023/07/07 06:25:27;;;;;;;68.83;7.93;;;17.80;4.80;;;;;;5082921;28;20535;-81
2023/07/07 06:27:53;;;;;;;67.00;6.00;;;17.90;8.00;;;;;;5082159;28;20192;-80
2023/07/07 06:30:24;;;;;;;68.47;6.97;;;18.00;3.40;;;;;;5081357;28;20174;-81
2023/07/07 06:32:49;;;;;;;68.60;7.00;;;18.00;1.00;;;;;;5081124;28;20397;-81
2023/07/07 06:35:15;;;;;;;73.40;7.43;;;18.10;5.10;;;;;;5079657;28;20485;-81
2023/07/07 06:37:41;;;;;;;66.77;6.63;;;18.10;2.00;;;;;;5082961;28;20247;-81
2023/07/07 06:40:07;;;;;;;68.50;6.70;;;18.20;1.50;;;;;;5074998;28;20179;-83
2023/07/07 06:42:33;;;;;;;68.07;7.70;;;18.30;1.00;;;;;;5090770;28;20179;-82
2023/07/07 06:44:58;;;;;;;75.40;7.37;;;18.30;1.00;;;;;;5071282;28;20414;-81
2023/07/07 06:47:28;;;;;;;69.27;7.33;;;18.40;1.00;;;;;;5067267;28;20276;-83
2023/07/07 06:49:53;;;;;;;69.00;6.30;;;18.50;1.00;;;;;;5084270;28;20168;-83
2023/07/07 06:52:26;;;;;;;68.77;6.40;;;18.60;1.00;;;;;;5068729;28;20446;-82
2023/07/07 06:54:56;;;;;;;67.27;5.63;;;18.60;1.00;;;;;;5088794;28;20165;-82
2023/07/07 06:57:22;;;;;;;69.47;6.67;;;18.70;1.00;;;;;;5070196;28;20444;-82
2023/07/07 06:59:47;;;;;;;67.27;5.40;;;18.70;1.00;;;;;;5087263;28;20412;-82
2023/07/07 07:02:16;;;;;;;68.50;5.40;;;18.80;1.00;;;;;;5086998;28;20182;-83
2023/07/07 07:04:42;;;;;;;66.70;4.77;;;18.80;1.00;;;;;;5085536;28;20325;-82
2023/07/07 07:07:09;;;;;;;66.07;4.80;;;18.90;1.00;;;;;;5086585;28;20406;-82
2023/07/07 07:09:35;;;;;;;68.40;5.03;;;19.00;1.00;;;;;;5088846;28;20171;-82
2023/07/07 07:12:03;;;;;;;71.97;5.17;;;19.10;1.00;;;;;;5091692;28;20414;-82
2023/07/07 07:14:29;;;;;;;71.60;5.00;;;19.10;1.00;;;;;;5088564;28;20403;-82
2023/07/07 07:16:55;;;;;;;66.07;4.20;;;19.20;1.00;;;;;;5089467;28;20974;-85
2023/07/07 07:19:20;;;;;;;68.00;3.97;;;19.40;1.00;;;;;;5073500;28;20184;-85
2023/07/07 07:21:46;;;;;;;67.63;4.20;;;19.50;1.00;;;;;;5087669;28;20197;-85
2023/07/07 07:24:12;;;;;;;67.00;3.87;;;19.60;1.00;;;;;;5328198;22;20220;-82
2023/07/07 07:29:06;;;;;;;65.80;3.87;;;19.80;1.00;;;;;;5039597;28;20217;-82
2023/07/07 07:31:37;;;;;;;68.03;3.50;;;19.90;1.00;;;;;;5042783;28;20450;-82
2023/07/07 07:34:26;;;;;;;66.80;3.70;;;19.90;1.00;;;;;;5042943;28;20374;-82
2023/07/07 07:36:58;;;;;;;67.77;4.00;;;20.00;1.00;;;;;;5024493;28;20444;-82
2023/07/07 07:39:26;;;;;;;67.27;3.83;;;20.10;1.00;;;;;;5042789;28;20523;-81
2023/07/07 07:41:53;;;;;;;70.07;3.80;;;20.20;1.00;;;;;;5044512;28;20406;-81
2023/07/07 07:44:20;;;;;;;70.33;4.57;;;20.30;1.00;;;;;;5027449;28;20408;-81
2023/07/07 07:46:48;;;;;;;68.00;3.60;;;20.50;1.00;;;;;;5044917;28;20420;-81
2023/07/07 07:49:14;;;;;;;84.83;3.80;;;20.50;1.00;;;;;;5045607;28;20919;-81
2023/07/07 07:51:40;;;;;;;69.20;3.67;;;20.60;1.00;;;;;;5044144;28;20408;-81
2023/07/07 07:54:11;;;;;;;69.80;3.30;;;20.60;1.00;;;;;;5024954;28;20426;-80
2023/07/07 07:56:38;;;;;;;67.87;3.60;;;20.70;1.00;;;;;;5043072;28;20207;-81
2023/07/07 07:59:07;;;;;;;75.10;5.60;;;20.80;1.00;;;;;;5024904;28;20951;-80
2023/07/07 08:01:33;;;;;;;74.63;6.10;;;20.90;1.00;;;;;;5043320;28;20401;-81
2023/07/07 08:03:59;;;;;;;77.77;7.70;;;20.90;1.00;;;;;;5043969;28;20410;-81
2023/07/07 08:06:25;;;;;;;87.27;10.33;;;21.00;1.00;;;;;;5043686;28;20408;-80
2023/07/07 08:08:50;;;;;;;82.87;11.10;;;21.20;1.00;;;;;;5054829;28;20202;-81
2023/07/07 08:11:25;;;;;;;82.63;11.40;;;21.20;1.00;;;;;;5040776;28;20474;-81
2023/07/07 08:13:51;;;;;;;83.30;10.97;;;21.30;1.00;;;;;;5057681;28;20168;-81
2023/07/07 08:16:17;;;;;;;77.50;9.93;;;21.50;1.00;;;;;;5057356;28;20478;-81
2023/07/07 08:18:42;;;;;;;77.17;9.50;;;21.50;1.00;;;;;;5055613;28;20189;-81
2023/07/07 08:21:08;;;;;;;75.53;8.23;;;21.60;1.00;;;;;;5055664;28;20246;-81
2023/07/07 08:23:34;;;;;;;76.47;6.60;;;21.70;1.00;;;;;;5056560;28;20168;-81
2023/07/07 08:25:59;;;;;;;71.30;5.23;;;21.80;1.00;;;;;;5056183;28;20400;-81
2023/07/07 08:28:25;;;;;;;69.93;4.73;;;22.00;1.00;;;;;;5039446;28;20261;-81
2023/07/07 08:30:51;;;;;;;67.83;3.63;;;22.10;1.00;;;;;;5056674;28;20199;-81
2023/07/07 08:33:18;;;;;;;69.87;6.27;;;22.20;1.00;;;;;;5053696;28;20161;-81
2023/07/07 08:35:44;;;;;;;71.20;3.57;;;22.20;1.00;;;;;;5056367;28;20197;-81
2023/07/07 08:38:09;;;;;;;66.97;3.57;;;22.40;1.00;;;;;;5055220;28;20608;-81
2023/07/07 08:40:46;;;;;;;67.47;3.37;;;22.60;1.00;;;;;;5055875;28;20165;-81
2023/07/07 08:43:11;;;;;;;70.67;3.90;;;22.70;1.00;;;;;;5056679;28;20146;-81
2023/07/07 08:45:43;;;;;;;69.10;3.67;;;22.70;1.00;;;;;;5056210;28;20416;-82
2023/07/07 08:48:12;;;;;;;69.27;3.93;;;22.70;1.00;;;;;;5056491;28;20189;-81
2023/07/07 08:50:58;;;;;;;73.43;4.13;;;22.80;1.00;;;;;;5056119;28;20404;-82
2023/07/07 08:53:30;;;;;;;69.20;3.50;;;23.00;1.00;;;;;;5044204;28;20384;-81
2023/07/07 08:56:15;;;;;;;68.50;3.87;;;23.10;1.00;;;;;;5041376;28;20946;-81
2023/07/07 08:59:02;;;;;;;69.67;2.97;;;23.30;1.00;;;;;;5041568;28;20424;-81
2023/07/07 09:01:48;;;;;;;67.33;2.83;;;23.50;1.00;;;;;;5042935;28;20391;-81
2023/07/07 09:04:35;;;;;;;67.77;3.47;;;23.70;1.00;;;;;;5040958;28;20385;-81
2023/07/07 09:07:13;;;;;;;72.73;3.50;;;23.60;1.00;;;;;;5041344;28;20965;-81
2023/07/07 09:09:52;;;;;;;70.50;3.77;;;23.60;1.00;;;;;;5124233;22;20539;-80
2023/07/07 09:12:42;;;;;;;68.90;3.40;;;23.80;1.00;;;;;;5078407;28;20934;-80
2023/07/07 09:15:28;;;;;;;68.27;3.50;;;23.90;1.00;;;;;;5078518;28;20806;-80
2023/07/07 09:18:13;;;;;;;68.97;3.80;;;24.00;1.00;;;;;;5059957;28;20452;-80
2023/07/07 09:20:43;;;;;;;70.47;3.80;;;24.20;1.00;;;;;;5060413;28;20394;-80
2023/07/07 09:23:17;;;;;;;68.47;3.23;;;24.30;1.00;;;;;;5077650;28;20438;-80
2023/07/07 09:25:47;;;;;;;69.13;3.50;;;24.50;1.00;;;;;;5077610;28;20394;-80
2023/07/07 09:28:15;;;;;;;71.13;3.77;;;24.60;1.00;;;;;;5077711;28;20465;-79
2023/07/07 09:30:57;;;;;;;68.30;3.57;;;24.80;1.00;;;;;;5077611;28;20391;-79
2023/07/07 09:33:24;;;;;;;70.93;4.63;;;24.90;1.00;;;;;;5058281;28;20486;-80
2023/07/07 09:36:02;;;;;;;70.50;4.80;;;24.90;1.00;;;;;;5077439;28;20872;-80
2023/07/07 09:38:49;;;;;;;69.20;4.70;;;25.00;1.00;;;;;;5077547;28;20427;-80
2023/07/07 09:41:52;;;;;;;70.00;6.90;;;25.20;1.00;;;;;;5077954;28;20456;-80
2023/07/07 09:44:49;;;;;;;71.07;6.00;;;25.40;1.00;;;;;;5059957;28;20548;-80
2023/07/07 09:47:31;;;;;;;68.67;5.47;;;25.60;1.00;;;;;;5077622;28;20970;-79
2023/07/07 09:50:11;;;;;;;69.47;7.10;;;25.80;1.00;;;;;;5058714;28;20396;-80
2023/07/07 09:52:52;;;;;;;70.47;8.10;;;25.90;1.00;;;;;;5076977;28;20383;-80
2023/07/07 09:55:29;;;;;;;70.57;8.67;;;25.80;1.00;;;;;;5134826;27;20508;-78
2023/07/07 09:58:13;;;;;;;70.53;8.07;;;25.90;1.00;;;;;;5107176;28;20428;-79
2023/07/07 10:00:41;;;;;;;69.50;6.70;;;26.00;1.00;;;;;;5094044;28;20910;-80
2023/07/07 10:03:29;;;;;;;69.77;6.60;;;25.90;1.00;;;;;;5094036;28;20784;-79
2023/07/07 10:05:57;;;;;;;69.40;7.47;;;26.00;1.00;;;;;;5094262;28;20432;-80
2023/07/07 10:08:23;;;;;;;72.13;8.17;;;26.20;1.00;;;;;;5094147;28;20424;-80
2023/07/07 10:11:08;;;;;;;73.27;7.53;;;26.30;1.00;;;;;;5093662;28;20405;-79
2023/07/07 10:13:33;;;;;;;70.10;6.80;;;26.60;1.00;;;;;;5093949;28;20193;-79
2023/07/07 10:16:05;;;;;;;68.40;5.30;;;26.70;1.00;;;;;;5094183;28;20410;-80
2023/07/07 10:18:32;;;;;;;69.03;4.83;;;26.80;1.00;;;;;;5093743;28;20554;-79
2023/07/07 10:21:02;;;;;;;69.40;6.03;;;26.90;1.00;;;;;;5093671;28;20398;-79
2023/07/07 10:23:29;;;;;;;71.03;6.30;;;27.20;1.00;;;;;;5094044;28;20435;-80
2023/07/07 10:25:55;;;;;;;71.53;5.83;;;27.30;1.00;;;;;;5094043;28;20413;-79
2023/07/07 10:28:22;;;;;;;69.00;5.43;;;27.40;1.00;;;;;;5093168;28;20418;-80
2023/07/07 10:30:48;;;;;;;70.20;6.27;;;27.40;1.00;;;;;;5093541;28;20462;-79
2023/07/07 10:33:18;;;;;;;69.40;5.20;;;27.60;1.00;;;;;;5093282;28;20416;-79
2023/07/07 10:35:44;;;;;;;68.80;4.63;;;27.80;1.00;;;;;;5093666;28;20436;-79
2023/07/07 10:38:11;;;;;;;68.60;4.83;;;27.70;1.00;;;;;;5092955;28;20413;-79
2023/07/07 10:40:40;;;;;;;69.70;4.70;;;27.60;1.00;;;;;;5093189;28;20231;-79
2023/07/07 10:43:09;;;;;;;68.73;4.90;;;27.60;1.00;;;;;;5093025;28;20408;-79
2023/07/07 10:45:35;;;;;;;69.10;5.17;;;27.70;1.00;;;;;;5093329;28;20374;-79
2023/07/07 10:48:03;;;;;;;70.57;5.50;;;27.70;1.00;;;;;;5092521;28;20418;-79
2023/07/07 10:50:34;;;;;;;69.60;5.17;;;27.60;1.00;;;;;;5092407;28;20177;-80
2023/07/07 10:54:10;;;;;;;69.30;4.67;;;27.80;1.00;;;;;;5092604;28;20390;-79
2023/07/07 10:56:46;;;;;;;68.17;4.37;;;27.70;1.00;;;;;;4991322;28;20426;-79
2023/07/07 10:59:27;;;;;;;70.27;5.17;;;28.10;1.00;;;;;;4974998;28;20857;-80
2023/07/07 11:02:01;;;;;;;69.80;5.27;;;28.50;1.00;;;;;;5055571;28;20794;-80
2023/07/07 11:04:58;;;;;;;69.77;5.97;;;28.60;1.00;;;;;;5092672;28;20498;-80
2023/07/07 11:07:37;;;;;;;68.67;5.30;;;28.70;1.00;;;;;;5063369;28;20449;-79
2023/07/07 11:10:11;;;;;;;70.30;6.50;;;28.70;1.00;;;;;;5079095;28;20382;-79
2023/07/07 11:12:58;;;;;;;70.77;5.63;;;28.70;1.00;;;;;;5079022;28;20799;-79
2023/07/07 11:15:35;;;;;;;69.50;5.73;;;28.50;1.00;;;;;;5079579;28;20451;-79
2023/07/07 11:18:35;;;;;;;69.90;5.10;;;28.70;1.00;;;;;;5077566;28;20422;-80
2023/07/07 11:21:07;;;;;;;69.33;5.70;;;28.80;1.00;;;;;;5070046;28;20437;-79
2023/07/07 11:23:39;;;;;;;69.17;4.93;;;29.00;1.00;;;;;;5078664;28;20812;-78
2023/07/07 11:26:17;;;;;;;69.77;5.23;;;29.00;1.00;;;;;;5078320;28;20379;-79
2023/07/07 11:29:05;;;;;;;69.27;5.50;;;29.00;1.00;;;;;;5078609;28;20775;-79
2023/07/07 11:32:15;;;;;;;70.10;4.77;;;28.90;1.00;;;;;;5078171;28;20422;-78
2023/07/07 11:34:43;;;;;;;70.00;5.07;;;29.30;1.00;;;;;;5035459;28;20454;-79
2023/07/07 11:37:15;;;;;;;68.60;4.27;;;29.40;1.00;;;;;;5036538;28;20792;-80
2023/07/07 11:39:47;;;;;;;69.80;4.70;;;29.70;1.00;;;;;;5059975;28;20417;-79
2023/07/07 11:42:27;;;;;;;70.07;4.10;;;29.90;1.00;;;;;;5078905;28;20379;-80
2023/07/07 11:44:53;;;;;;;69.47;4.30;;;29.70;1.00;;;;;;5076804;28;20410;-79
2023/07/07 11:47:50;;;;;;;69.50;4.50;;;29.70;1.00;;;;;;5078513;28;20399;-79
2023/07/07 11:50:26;;;;;;;69.17;3.97;;;30.00;1.00;;;;;;5078334;28;20156;-79
2023/07/07 11:52:58;;;;;;;69.70;3.77;;;30.40;1.00;;;;;;5078043;28;20401;-79
2023/07/07 11:55:51;;;;;;;69.90;3.83;;;30.40;1.00;;;;;;5076690;28;20985;-79
2023/07/07 11:58:16;;;;;;;69.70;3.97;;;30.60;1.00;;;;;;5077536;28;20428;-80
2023/07/07 12:01:03;;;;;;;76.70;4.03;;;30.60;1.00;;;;;;5077990;28;20489;-79
2023/07/07 12:04:07;;;;;;;68.50;3.03;;;30.40;1.00;;;;;;5077836;28;20176;-80
2023/07/07 12:06:38;;;;;;;69.10;3.83;;;30.50;1.00;;;;;;5056873;28;20414;-79
2023/07/07 12:09:14;;;;;;;68.73;3.53;;;30.50;1.00;;;;;;5077701;28;20921;-80
2023/07/07 12:11:48;;;;;;;73.00;3.80;;;30.70;1.00;;;;;;5076482;28;20769;-80
2023/07/07 12:14:33;;;;;;;70.47;3.17;;;30.90;1.00;;;;;;5077498;28;20464;-80
2023/07/07 12:17:00;;;;;;;69.40;3.00;;;30.90;1.00;;;;;;5076810;28;20405;-80
2023/07/07 12:19:40;;;;;;;69.80;4.17;;;30.90;1.00;;;;;;5077444;28;20933;-80
2023/07/07 12:22:14;;;;;;;68.57;3.40;;;31.10;1.00;;;;;;5077985;28;20385;-80
2023/07/07 12:24:59;;;;;;;69.07;3.20;;;31.10;1.00;;;;;;5077679;28;20382;-80
2023/07/07 12:27:32;;;;;;;69.37;3.30;;;31.20;1.00;;;;;;5077825;28;20412;-80
2023/07/07 12:29:59;;;;;;;70.00;4.03;;;31.30;1.00;;;;;;5076364;28;20406;-80
2023/07/07 12:32:24;;;;;;;68.37;3.57;;;31.30;1.00;;;;;;5077434;28;20429;-80
2023/07/07 12:35:06;;;;;;;69.60;3.70;;;31.30;1.00;;;;;;5077727;28;20454;-80
2023/07/07 12:37:34;;;;;;;68.10;3.40;;;31.30;1.00;;;;;;5077318;28;20735;-80
2023/07/07 12:40:12;;;;;;;69.27;3.30;;;31.40;1.00;;;;;;5077358;28;20762;-80
2023/07/07 12:42:40;;;;;;;71.83;3.10;;;31.30;1.00;;;;;;5076952;28;20443;-80
2023/07/07 12:45:32;;;;;;;69.07;2.80;;;31.00;1.00;;;;;;5077583;28;20860;-80
2023/07/07 12:48:25;;;;;;;69.90;3.80;;;31.00;1.00;;;;;;5075913;28;20506;-80
2023/07/07 12:50:54;;;;;;;68.77;3.00;;;31.10;1.00;;;;;;5075894;28;20410;-80
2023/07/07 12:53:36;;;;;;;68.40;4.10;;;31.00;1.00;;;;;;5077163;28;20488;-79
2023/07/07 12:56:07;;;;;;;70.57;3.37;;;31.20;1.00;;;;;;5075875;28;20466;-80
2023/07/07 12:58:48;;;;;;;68.87;4.40;;;31.00;1.00;;;;;;5076924;28;20419;-80
2023/07/07 13:01:14;;;;;;;69.10;4.17;;;31.10;1.00;;;;;;5076712;28;20398;-79
2023/07/07 13:03:43;;;;;;;68.47;4.03;;;31.00;1.00;;;;;;5076979;28;20387;-79
2023/07/07 13:06:23;;;;;;;68.70;4.17;;;30.90;1.00;;;;;;5075170;28;20176;-80
2023/07/07 13:09:16;;;;;;;69.67;4.87;;;30.90;1.00;;;;;;5076178;28;20438;-80